Time;durP1;ratioP1;P1;durP2;ratioP2;P2;SDS_P1;SDS_P2;PMS_P1;PMS_P2;Temp;Humidity;BMP_temperature;BMP_pressure;BME280_temperature;BME280_humidity;BME280_pressure;Samples;Min_cycle;Max_cycle;Signal;HPM_P1;HPM_P2
2023/07/08 00:00:45;;;;;;;6.20;4.55;;;;;;;;;;5064534;28;20069;-65
2023/07/08 00:03:12;;;;;;;6.68;4.30;;;;;;;;;;5046041;28;20089;-64
2023/07/08 00:05:39;;;;;;;7.72;4.30;;;;;;;;;;5065527;28;20162;-64
2023/07/08 00:08:21;;;;;;;8.52;4.50;;;;;;;;;;5063588;28;20045;-64
2023/07/08 00:10:48;;;;;;;6.30;4.38;;;;;;;;;;5066739;28;20041;-64
2023/07/08 00:13:15;;;;;;;9.43;4.75;;;;;;;;;;5062258;28;20550;-64
2023/07/08 00:15:42;;;;;;;8.40;4.35;;;;;;;;;;5070313;28;20118;-64
2023/07/08 00:18:15;;;;;;;8.80;4.60;;;;;;;;;;5066926;28;20056;-64
2023/07/08 00:20:45;;;;;;;9.27;4.60;;;;;;;;;;5071482;28;20796;-65
2023/07/08 00:23:12;;;;;;;4.78;3.58;;;;;;;;;;5068823;28;20053;-64
2023/07/08 00:25:40;;;;;;;6.95;3.92;;;;;;;;;;5067961;28;20052;-64
2023/07/08 00:28:14;;;;;;;7.45;4.10;;;;;;;;;;5066770;28;20126;-64
2023/07/08 00:30:42;;;;;;;8.82;4.05;;;;;;;;;;5071257;28;20099;-64
2023/07/08 00:33:09;;;;;;;5.30;3.60;;;;;;;;;;5067054;28;20561;-64
2023/07/08 00:35:36;;;;;;;8.73;4.00;;;;;;;;;;5067224;28;20184;-64
2023/07/08 00:38:18;;;;;;;7.95;3.38;;;;;;;;;;5067755;28;20040;-64
2023/07/08 00:41:08;;;;;;;9.05;3.50;;;;;;;;;;5067546;28;20495;-64
2023/07/08 00:43:35;;;;;;;7.13;4.00;;;;;;;;;;5053479;28;20087;-64
2023/07/08 00:46:34;;;;;;;6.03;3.67;;;;;;;;;;5064510;28;20049;-64
2023/07/08 00:49:07;;;;;;;6.05;3.50;;;;;;;;;;5064945;28;20057;-64
2023/07/08 00:51:39;;;;;;;5.57;3.08;;;;;;;;;;5064335;28;20044;-64
2023/07/08 00:54:10;;;;;;;5.88;3.50;;;;;;;;;;5072298;28;20131;-64
2023/07/08 00:56:50;;;;;;;6.85;3.58;;;;;;;;;;5067843;28;20148;-64
2023/07/08 00:59:19;;;;;;;8.70;3.05;;;;;;;;;;5064017;28;20103;-64
2023/07/08 01:01:47;;;;;;;8.45;3.78;;;;;;;;;;5063344;28;20065;-64
2023/07/08 01:04:34;;;;;;;6.15;3.80;;;;;;;;;;5069645;28;20512;-64
2023/07/08 01:07:03;;;;;;;6.75;3.50;;;;;;;;;;5048072;28;20081;-64
2023/07/08 01:09:36;;;;;;;5.45;3.80;;;;;;;;;;5065941;28;20045;-64
2023/07/08 01:12:04;;;;;;;8.23;3.67;;;;;;;;;;5060111;28;20049;-64
2023/07/08 01:14:33;;;;;;;4.90;3.17;;;;;;;;;;5072792;28;20099;-64
2023/07/08 01:17:00;;;;;;;6.10;3.38;;;;;;;;;;5062606;28;20038;-64
2023/07/08 01:19:34;;;;;;;7.15;3.78;;;;;;;;;;5062901;28;20475;-64
2023/07/08 01:22:03;;;;;;;5.60;3.10;;;;;;;;;;5064270;28;20095;-64
2023/07/08 01:24:31;;;;;;;6.97;3.67;;;;;;;;;;5062554;28;20041;-64
2023/07/08 01:27:00;;;;;;;5.95;3.25;;;;;;;;;;5063066;28;20049;-64
2023/07/08 01:29:28;;;;;;;7.15;3.05;;;;;;;;;;5070527;28;20100;-64
2023/07/08 01:31:55;;;;;;;7.18;3.17;;;;;;;;;;5065481;28;20056;-64
2023/07/08 01:34:23;;;;;;;7.28;3.50;;;;;;;;;;5047698;28;20053;-64
2023/07/08 01:36:52;;;;;;;7.72;3.53;;;;;;;;;;5072740;28;20048;-64
2023/07/08 01:39:21;;;;;;;9.95;3.40;;;;;;;;;;5065110;28;20494;-64
2023/07/08 01:41:48;;;;;;;6.30;3.80;;;;;;;;;;5064776;28;20048;-64
2023/07/08 01:44:28;;;;;;;7.00;3.20;;;;;;;;;;5066537;28;20148;-64
2023/07/08 01:46:56;;;;;;;6.72;3.45;;;;;;;;;;5066477;28;20055;-64
2023/07/08 01:49:24;;;;;;;6.00;3.17;;;;;;;;;;5065712;28;20049;-64
2023/07/08 01:51:51;;;;;;;6.75;3.17;;;;;;;;;;5068664;28;20041;-64
2023/07/08 01:54:18;;;;;;;5.35;3.45;;;;;;;;;;5068826;28;20045;-64
2023/07/08 01:56:45;;;;;;;7.32;3.35;;;;;;;;;;5068156;28;20156;-64
2023/07/08 01:59:13;;;;;;;7.93;3.42;;;;;;;;;;5068528;28;20045;-64
2023/07/08 02:01:40;;;;;;;7.35;3.28;;;;;;;;;;5065883;28;20758;-64
2023/07/08 02:04:07;;;;;;;6.00;3.40;;;;;;;;;;5068807;28;20049;-67
2023/07/08 02:06:34;;;;;;;5.38;3.30;;;;;;;;;;5071347;28;20045;-64
2023/07/08 02:09:02;;;;;;;8.65;3.75;;;;;;;;;;5075714;28;20092;-64
2023/07/08 02:11:30;;;;;;;6.20;3.50;;;;;;;;;;5069546;28;20060;-64
2023/07/08 02:13:57;;;;;;;8.05;3.85;;;;;;;;;;5068351;28;20835;-64
2023/07/08 02:16:24;;;;;;;5.53;3.70;;;;;;;;;;5071080;28;20534;-64
2023/07/08 02:18:51;;;;;;;7.32;3.40;;;;;;;;;;5068051;28;20059;-64
2023/07/08 02:21:18;;;;;;;9.43;4.00;;;;;;;;;;5069250;28;20366;-64
2023/07/08 02:23:50;;;;;;;7.03;3.55;;;;;;;;;;5063712;28;20164;-64
2023/07/08 02:26:17;;;;;;;6.85;3.80;;;;;;;;;;5067242;28;20103;-64
2023/07/08 02:28:44;;;;;;;6.25;3.45;;;;;;;;;;5070189;28;20049;-64
2023/07/08 02:31:11;;;;;;;8.93;3.55;;;;;;;;;;5069748;28;21086;-64
2023/07/08 02:33:39;;;;;;;6.70;3.47;;;;;;;;;;5068511;28;20041;-64
2023/07/08 02:36:06;;;;;;;6.47;3.53;;;;;;;;;;5081119;28;20500;-64
2023/07/08 02:38:33;;;;;;;8.52;3.60;;;;;;;;;;5068334;28;20049;-64
2023/07/08 02:41:00;;;;;;;8.27;3.60;;;;;;;;;;5071923;28;20084;-64
2023/07/08 02:43:28;;;;;;;7.63;3.88;;;;;;;;;;5069649;28;20524;-64
2023/07/08 02:45:55;;;;;;;11.80;4.20;;;;;;;;;;5068670;28;20060;-64
2023/07/08 02:48:22;;;;;;;11.38;3.95;;;;;;;;;;5068906;28;20049;-65
2023/07/08 02:50:50;;;;;;;7.97;3.80;;;;;;;;;;5068406;28;22630;-64
2023/07/08 02:53:17;;;;;;;7.47;3.78;;;;;;;;;;5065958;28;20049;-64
2023/07/08 02:55:44;;;;;;;8.93;3.90;;;;;;;;;;5069197;28;20895;-64
2023/07/08 02:58:12;;;;;;;6.90;3.92;;;;;;;;;;5069699;28;20048;-64
2023/07/08 03:00:39;;;;;;;6.03;3.90;;;;;;;;;;5064607;28;20049;-64
2023/07/08 03:03:06;;;;;;;6.85;3.80;;;;;;;;;;5064351;28;20068;-65
2023/07/08 03:05:34;;;;;;;6.47;3.83;;;;;;;;;;5067079;28;20577;-64
2023/07/08 03:08:01;;;;;;;6.47;3.75;;;;;;;;;;5068723;28;20115;-64
2023/07/08 03:10:28;;;;;;;8.07;4.20;;;;;;;;;;5047151;28;20057;-64
2023/07/08 03:12:55;;;;;;;7.43;4.20;;;;;;;;;;5049516;28;20052;-64
2023/07/08 03:15:23;;;;;;;5.97;3.92;;;;;;;;;;5067483;28;20083;-64
2023/07/08 03:17:50;;;;;;;10.82;4.55;;;;;;;;;;5063754;28;21028;-64
2023/07/08 03:20:17;;;;;;;8.07;4.13;;;;;;;;;;5069024;28;20111;-64
2023/07/08 03:22:45;;;;;;;6.38;4.05;;;;;;;;;;5063657;28;20116;-64
2023/07/08 03:25:12;;;;;;;12.88;4.10;;;;;;;;;;5068348;28;20049;-64
2023/07/08 03:27:39;;;;;;;8.63;3.95;;;;;;;;;;5064154;28;20092;-65
2023/07/08 03:30:07;;;;;;;6.40;3.80;;;;;;;;;;5068494;28;20053;-65
2023/07/08 03:32:34;;;;;;;5.55;3.85;;;;;;;;;;5069710;28;20056;-64
2023/07/08 03:35:01;;;;;;;7.07;4.10;;;;;;;;;;5071045;28;20807;-64
2023/07/08 03:37:28;;;;;;;7.50;4.00;;;;;;;;;;5075119;28;20044;-64
2023/07/08 03:39:55;;;;;;;11.45;4.63;;;;;;;;;;5067342;28;20045;-64
2023/07/08 03:42:23;;;;;;;7.32;3.90;;;;;;;;;;5068023;28;20147;-65
2023/07/08 03:44:50;;;;;;;7.88;3.72;;;;;;;;;;5068596;28;20576;-64
2023/07/08 03:47:17;;;;;;;5.82;3.80;;;;;;;;;;5067646;28;20538;-64
2023/07/08 03:49:44;;;;;;;6.35;3.70;;;;;;;;;;5052583;28;20053;-64
2023/07/08 03:52:15;;;;;;;6.30;4.50;;;;;;;;;;5071717;28;20559;-64
2023/07/08 03:54:42;;;;;;;7.80;4.25;;;;;;;;;;5049200;28;20060;-64
2023/07/08 03:57:10;;;;;;;8.90;4.53;;;;;;;;;;5070610;28;20421;-64
2023/07/08 03:59:37;;;;;;;9.15;4.30;;;;;;;;;;5067651;28;20099;-64
2023/07/08 04:02:04;;;;;;;7.95;4.00;;;;;;;;;;5068205;28;20548;-64
2023/07/08 04:04:32;;;;;;;14.35;4.72;;;;;;;;;;5065562;28;20072;-64
2023/07/08 04:06:59;;;;;;;8.82;4.43;;;;;;;;;;5067877;28;20048;-64
2023/07/08 04:09:26;;;;;;;9.40;4.32;;;;;;;;;;5069788;28;20041;-64
2023/07/08 04:11:54;;;;;;;6.80;4.38;;;;;;;;;;5065765;28;20075;-64
2023/07/08 04:14:21;;;;;;;6.95;4.10;;;;;;;;;;5072177;28;20190;-64
2023/07/08 04:16:53;;;;;;;7.20;4.55;;;;;;;;;;5063831;28;20053;-63
2023/07/08 04:19:22;;;;;;;5.32;3.95;;;;;;;;;;5065960;28;20051;-64
2023/07/08 04:21:50;;;;;;;5.82;3.67;;;;;;;;;;5065515;28;20049;-64
2023/07/08 04:24:18;;;;;;;8.68;4.25;;;;;;;;;;5065902;28;20055;-63
2023/07/08 04:26:46;;;;;;;5.72;4.00;;;;;;;;;;5067223;28;20465;-64
2023/07/08 04:29:14;;;;;;;9.18;4.40;;;;;;;;;;5066265;28;20140;-64
2023/07/08 04:31:42;;;;;;;8.63;4.10;;;;;;;;;;5069534;28;20051;-64
2023/07/08 04:34:09;;;;;;;10.23;4.45;;;;;;;;;;5060953;28;20503;-64
2023/07/08 04:36:37;;;;;;;10.05;4.53;;;;;;;;;;5070759;28;20083;-64
2023/07/08 04:39:05;;;;;;;8.13;4.60;;;;;;;;;;5071530;28;20045;-64
2023/07/08 04:41:32;;;;;;;8.95;4.90;;;;;;;;;;5064576;28;20458;-64
2023/07/08 04:44:02;;;;;;;10.88;4.80;;;;;;;;;;5067408;28;20053;-64
2023/07/08 04:46:29;;;;;;;10.18;4.53;;;;;;;;;;5065911;28;20049;-64
2023/07/08 04:49:00;;;;;;;7.05;4.32;;;;;;;;;;5067152;28;20049;-64
2023/07/08 04:51:27;;;;;;;8.90;4.32;;;;;;;;;;5067458;28;20142;-64
2023/07/08 04:53:54;;;;;;;7.07;4.30;;;;;;;;;;5066298;28;20942;-64
2023/07/08 04:56:23;;;;;;;6.75;4.30;;;;;;;;;;5041497;28;20052;-64
2023/07/08 04:58:50;;;;;;;7.90;4.50;;;;;;;;;;5068829;28;20103;-64
2023/07/08 05:01:18;;;;;;;11.02;4.60;;;;;;;;;;5065697;28;20103;-64
2023/07/08 05:03:45;;;;;;;6.55;4.50;;;;;;;;;;5067778;28;20123;-64
2023/07/08 05:06:12;;;;;;;10.00;4.15;;;;;;;;;;5066079;28;20135;-64
2023/07/08 05:08:40;;;;;;;10.48;4.45;;;;;;;;;;5065753;28;20515;-64
2023/07/08 05:11:07;;;;;;;8.68;4.57;;;;;;;;;;5065492;28;20073;-64
2023/07/08 05:13:34;;;;;;;9.52;4.60;;;;;;;;;;5066740;28;20049;-64
2023/07/08 05:16:01;;;;;;;7.57;4.45;;;;;;;;;;5064935;28;20087;-64
2023/07/08 05:18:28;;;;;;;11.57;4.82;;;;;;;;;;5065661;28;20141;-64
2023/07/08 05:20:56;;;;;;;6.95;4.35;;;;;;;;;;5066618;28;20497;-64
2023/07/08 05:23:24;;;;;;;8.63;4.47;;;;;;;;;;5066929;28;20049;-64
2023/07/08 05:25:51;;;;;;;9.23;4.78;;;;;;;;;;5065835;28;21018;-64
2023/07/08 05:28:19;;;;;;;12.30;4.13;;;;;;;;;;5068475;28;20053;-64
2023/07/08 05:30:46;;;;;;;15.75;3.80;;;;;;;;;;5070107;28;20049;-64
2023/07/08 05:33:13;;;;;;;6.00;3.78;;;;;;;;;;5069258;28;23515;-64
2023/07/08 05:35:41;;;;;;;6.90;3.75;;;;;;;;;;5074020;28;20167;-64
2023/07/08 05:38:08;;;;;;;8.02;4.05;;;;;;;;;;5079038;28;20053;-64
2023/07/08 05:40:35;;;;;;;6.85;3.58;;;;;;;;;;5068577;28;20053;-64
2023/07/08 05:43:02;;;;;;;6.18;4.00;;;;;;;;;;5068941;28;20809;-64
2023/07/08 05:45:30;;;;;;;5.90;3.85;;;;;;;;;;5062801;28;20059;-64
2023/07/08 05:47:57;;;;;;;8.52;3.67;;;;;;;;;;5069402;28;20131;-64
2023/07/08 05:50:24;;;;;;;6.82;4.00;;;;;;;;;;5067588;28;20045;-64
2023/07/08 05:52:52;;;;;;;9.80;3.80;;;;;;;;;;5070908;28;20503;-64
2023/07/08 05:55:19;;;;;;;5.93;3.72;;;;;;;;;;5067832;28;20053;-62
2023/07/08 05:57:46;;;;;;;7.60;3.50;;;;;;;;;;5070056;28;20049;-64
2023/07/08 06:00:13;;;;;;;6.45;3.50;;;;;;;;;;5069453;28;20139;-64
2023/07/08 06:02:56;;;;;;;9.75;3.47;;;;;;;;;;5071453;28;22976;-64
2023/07/08 06:05:23;;;;;;;6.95;3.33;;;;;;;;;;5065722;28;20522;-64
2023/07/08 06:07:50;;;;;;;8.48;3.67;;;;;;;;;;5071394;28;20053;-64
2023/07/08 06:10:17;;;;;;;4.68;2.83;;;;;;;;;;5065562;28;20132;-64
2023/07/08 06:12:45;;;;;;;5.20;3.00;;;;;;;;;;5069685;28;20045;-64
2023/07/08 06:15:12;;;;;;;7.68;3.25;;;;;;;;;;5050767;28;20083;-64
2023/07/08 06:17:39;;;;;;;6.10;3.08;;;;;;;;;;5068629;28;20520;-64
2023/07/08 06:20:07;;;;;;;8.20;3.33;;;;;;;;;;5065162;28;20056;-64
2023/07/08 06:22:34;;;;;;;10.02;3.50;;;;;;;;;;5067686;28;20106;-64
2023/07/08 06:25:05;;;;;;;5.80;3.38;;;;;;;;;;5049036;28;20053;-64
2023/07/08 06:27:33;;;;;;;7.45;3.30;;;;;;;;;;5066415;28;20053;-64
2023/07/08 06:30:00;;;;;;;6.25;2.78;;;;;;;;;;5071961;28;20049;-64
2023/07/08 06:32:27;;;;;;;6.13;3.03;;;;;;;;;;5048176;28;20206;-64
2023/07/08 06:34:54;;;;;;;8.35;2.70;;;;;;;;;;5070383;28;20164;-64
2023/07/08 06:37:21;;;;;;;7.40;3.22;;;;;;;;;;5068322;28;20053;-65
2023/07/08 06:39:49;;;;;;;6.65;2.70;;;;;;;;;;5073979;28;20053;-65
2023/07/08 06:42:16;;;;;;;4.45;2.72;;;;;;;;;;5069259;28;20041;-64
2023/07/08 06:44:50;;;;;;;9.13;2.95;;;;;;;;;;5069377;28;20075;-62
2023/07/08 06:47:20;;;;;;;7.35;2.90;;;;;;;;;;5070688;28;20053;-64
2023/07/08 06:49:48;;;;;;;7.32;2.70;;;;;;;;;;5067787;28;20052;-64
2023/07/08 06:52:15;;;;;;;6.38;2.97;;;;;;;;;;5065778;28;20817;-64
2023/07/08 06:54:42;;;;;;;6.82;3.00;;;;;;;;;;5072180;28;20051;-64
2023/07/08 06:57:09;;;;;;;5.45;2.53;;;;;;;;;;5069466;28;20553;-62
2023/07/08 06:59:37;;;;;;;5.15;3.28;;;;;;;;;;5065610;28;20052;-63
2023/07/08 07:02:04;;;;;;;6.45;2.97;;;;;;;;;;5068485;28;20053;-62
2023/07/08 07:04:32;;;;;;;8.45;2.92;;;;;;;;;;5068009;28;20041;-62
2023/07/08 07:06:59;;;;;;;9.15;3.15;;;;;;;;;;5071501;28;20057;-62
2023/07/08 07:09:26;;;;;;;8.10;3.30;;;;;;;;;;5070213;28;20481;-62
2023/07/08 07:11:54;;;;;;;4.40;3.00;;;;;;;;;;5066900;28;20132;-63
2023/07/08 07:14:21;;;;;;;3.95;2.60;;;;;;;;;;5066110;28;20079;-62
2023/07/08 07:16:51;;;;;;;7.20;2.97;;;;;;;;;;5069713;28;20099;-62
2023/07/08 07:19:34;;;;;;;5.43;2.90;;;;;;;;;;5066049;28;20052;-63
2023/07/08 07:22:02;;;;;;;4.93;2.83;;;;;;;;;;5063246;28;20041;-62
2023/07/08 07:24:29;;;;;;;11.43;3.08;;;;;;;;;;5065034;28;20060;-62
2023/07/08 07:26:56;;;;;;;5.13;2.75;;;;;;;;;;5062248;28;20045;-63
2023/07/08 07:29:24;;;;;;;4.63;2.72;;;;;;;;;;5065511;28;20163;-64
2023/07/08 07:31:51;;;;;;;8.60;3.30;;;;;;;;;;5067608;28;20041;-63
2023/07/08 07:34:19;;;;;;;4.97;2.80;;;;;;;;;;5071063;28;20053;-63
2023/07/08 07:36:46;;;;;;;9.32;3.00;;;;;;;;;;5067064;28;20048;-63
2023/07/08 07:39:13;;;;;;;7.80;3.22;;;;;;;;;;5044395;28;20532;-64
2023/07/08 07:41:41;;;;;;;7.30;3.08;;;;;;;;;;5060794;28;20123;-64
2023/07/08 07:44:08;;;;;;;9.00;2.90;;;;;;;;;;5036485;28;20049;-64
2023/07/08 07:46:36;;;;;;;9.27;2.85;;;;;;;;;;5046216;28;20049;-64
2023/07/08 07:49:03;;;;;;;8.57;3.22;;;;;;;;;;5066043;28;20068;-64
2023/07/08 07:51:31;;;;;;;7.68;3.13;;;;;;;;;;5063028;28;20045;-64
2023/07/08 07:53:59;;;;;;;6.82;2.90;;;;;;;;;;5066627;28;20915;-64
2023/07/08 07:56:26;;;;;;;5.15;3.00;;;;;;;;;;5063982;28;20049;-64
2023/07/08 07:58:53;;;;;;;6.97;3.20;;;;;;;;;;5064382;28;20053;-65
2023/07/08 08:01:21;;;;;;;7.00;3.40;;;;;;;;;;5064708;28;20823;-64
2023/07/08 08:03:50;;;;;;;5.50;3.20;;;;;;;;;;5060350;28;20502;-64
2023/07/08 08:06:18;;;;;;;8.05;3.10;;;;;;;;;;5065727;28;20048;-64
2023/07/08 08:08:45;;;;;;;6.38;3.17;;;;;;;;;;5046108;28;20533;-65
2023/07/08 08:11:12;;;;;;;4.93;2.95;;;;;;;;;;5066570;28;20047;-65
2023/07/08 08:13:40;;;;;;;7.18;3.08;;;;;;;;;;5069206;28;20049;-65
2023/07/08 08:16:07;;;;;;;6.28;3.38;;;;;;;;;;5062021;28;20057;-65
2023/07/08 08:18:34;;;;;;;9.48;3.13;;;;;;;;;;5062292;28;20506;-65
2023/07/08 08:21:01;;;;;;;5.22;3.38;;;;;;;;;;5064143;28;20049;-65
2023/07/08 08:23:29;;;;;;;6.53;3.05;;;;;;;;;;5058237;28;20924;-65
2023/07/08 08:25:56;;;;;;;5.93;3.28;;;;;;;;;;5065409;28;20092;-65
2023/07/08 08:28:23;;;;;;;6.38;3.47;;;;;;;;;;5066259;28;20045;-65
2023/07/08 08:30:51;;;;;;;6.18;3.55;;;;;;;;;;5061962;28;20481;-65
2023/07/08 08:33:18;;;;;;;10.32;3.53;;;;;;;;;;5065220;28;20063;-65
2023/07/08 08:35:46;;;;;;;7.95;3.45;;;;;;;;;;5064534;28;20510;-65
2023/07/08 08:38:13;;;;;;;5.88;3.50;;;;;;;;;;5065009;28;20445;-65
2023/07/08 08:40:41;;;;;;;5.82;3.72;;;;;;;;;;5066357;28;20049;-65
2023/07/08 08:43:32;;;;;;;9.75;3.90;;;;;;;;;;5060280;28;20044;-65
2023/07/08 08:46:18;;;;;;;4.97;3.40;;;;;;;;;;5059908;28;20168;-65
2023/07/08 08:48:54;;;;;;;6.07;4.05;;;;;;;;;;5065470;28;20737;-66
2023/07/08 08:51:22;;;;;;;7.03;3.88;;;;;;;;;;5065843;28;20053;-65
2023/07/08 08:53:57;;;;;;;10.88;4.22;;;;;;;;;;5062091;28;20523;-65
2023/07/08 08:56:29;;;;;;;5.75;3.47;;;;;;;;;;5065442;28;20053;-66
2023/07/08 08:59:03;;;;;;;10.25;3.90;;;;;;;;;;5068289;28;20548;-66
2023/07/08 09:01:30;;;;;;;8.18;3.63;;;;;;;;;;5057972;28;20053;-67
2023/07/08 09:04:16;;;;;;;7.65;3.70;;;;;;;;;;5056882;28;20055;-65
2023/07/08 09:06:44;;;;;;;8.05;4.00;;;;;;;;;;5073013;28;20052;-65
2023/07/08 09:09:25;;;;;;;9.00;4.20;;;;;;;;;;5070316;28;20075;-65
2023/07/08 09:11:58;;;;;;;9.27;3.95;;;;;;;;;;5066773;28;20056;-65
2023/07/08 09:14:27;;;;;;;5.20;3.58;;;;;;;;;;5066319;28;20060;-65
2023/07/08 09:17:02;;;;;;;7.32;4.20;;;;;;;;;;5073474;28;20840;-64
2023/07/08 09:19:33;;;;;;;6.88;4.30;;;;;;;;;;5071853;28;20061;-65
2023/07/08 09:22:06;;;;;;;7.32;4.40;;;;;;;;;;5070082;28;20045;-65
2023/07/08 09:24:42;;;;;;;7.75;4.28;;;;;;;;;;5075921;28;20106;-65
2023/07/08 09:27:10;;;;;;;8.70;4.15;;;;;;;;;;5069196;28;20057;-65
2023/07/08 09:29:37;;;;;;;8.88;4.20;;;;;;;;;;5070789;28;20044;-65
2023/07/08 09:32:17;;;;;;;9.25;4.72;;;;;;;;;;5071194;28;20077;-64
2023/07/08 09:35:02;;;;;;;7.25;4.55;;;;;;;;;;5065222;28;20095;-64
2023/07/08 09:37:30;;;;;;;6.90;4.40;;;;;;;;;;5072703;28;20057;-65
2023/07/08 09:39:58;;;;;;;11.48;4.85;;;;;;;;;;5065484;28;20139;-65
2023/07/08 09:42:28;;;;;;;6.90;4.47;;;;;;;;;;5062139;28;20049;-65
2023/07/08 09:44:57;;;;;;;7.70;4.70;;;;;;;;;;5068562;28;20049;-64
2023/07/08 09:47:32;;;;;;;10.43;4.40;;;;;;;;;;5076779;28;20572;-64
2023/07/08 09:50:01;;;;;;;8.93;4.10;;;;;;;;;;5068455;28;20057;-64
2023/07/08 09:52:30;;;;;;;6.50;4.20;;;;;;;;;;5067830;28;20520;-65
2023/07/08 09:54:57;;;;;;;10.18;4.40;;;;;;;;;;5068407;28;20119;-64
2023/07/08 09:57:26;;;;;;;10.70;4.78;;;;;;;;;;5066416;28;20096;-65
2023/07/08 09:59:58;;;;;;;11.82;4.45;;;;;;;;;;5067685;28;20443;-64
2023/07/08 10:02:44;;;;;;;7.20;4.63;;;;;;;;;;5068355;28;20053;-63
2023/07/08 10:05:17;;;;;;;8.15;4.07;;;;;;;;;;5068621;28;20049;-63
2023/07/08 10:07:45;;;;;;;5.88;4.10;;;;;;;;;;5071099;28;20051;-64
2023/07/08 10:10:16;;;;;;;8.98;4.45;;;;;;;;;;5045600;28;20508;-63
2023/07/08 10:12:51;;;;;;;9.35;4.75;;;;;;;;;;5065923;28;20785;-63
2023/07/08 10:15:25;;;;;;;10.63;4.60;;;;;;;;;;5068090;28;20061;-63
2023/07/08 10:17:53;;;;;;;9.00;4.35;;;;;;;;;;5076853;28;20045;-63
2023/07/08 10:20:21;;;;;;;6.65;4.53;;;;;;;;;;5070342;28;20548;-64
2023/07/08 10:22:57;;;;;;;9.10;4.38;;;;;;;;;;5069327;28;20099;-65
2023/07/08 10:25:29;;;;;;;6.68;4.18;;;;;;;;;;5066276;28;20813;-65
2023/07/08 10:28:01;;;;;;;10.07;4.85;;;;;;;;;;5068891;28;20501;-65
2023/07/08 10:30:32;;;;;;;7.53;4.60;;;;;;;;;;5067164;28;20049;-65
2023/07/08 10:33:08;;;;;;;9.90;4.50;;;;;;;;;;5064153;28;20048;-65
2023/07/08 10:35:37;;;;;;;10.05;4.80;;;;;;;;;;5065979;28;20053;-66
2023/07/08 10:38:15;;;;;;;13.02;5.25;;;;;;;;;;5067390;28;20052;-64
2023/07/08 10:40:49;;;;;;;9.95;5.03;;;;;;;;;;5070327;28;20047;-65
2023/07/08 10:43:29;;;;;;;7.03;4.40;;;;;;;;;;5066531;28;20060;-66
2023/07/08 10:46:02;;;;;;;14.00;4.75;;;;;;;;;;5058114;28;20106;-66
2023/07/08 10:48:44;;;;;;;7.47;4.65;;;;;;;;;;5063232;28;20407;-66
2023/07/08 10:51:27;;;;;;;7.50;4.70;;;;;;;;;;5065042;28;20053;-63
2023/07/08 10:54:13;;;;;;;9.30;5.35;;;;;;;;;;5068536;28;20108;-63
2023/07/08 10:56:54;;;;;;;13.23;5.40;;;;;;;;;;5067664;28;20045;-63
2023/07/08 10:59:24;;;;;;;10.88;4.95;;;;;;;;;;5067290;28;20430;-63
2023/07/08 11:02:00;;;;;;;11.07;5.18;;;;;;;;;;5066802;28;20057;-64
2023/07/08 11:04:34;;;;;;;9.00;4.53;;;;;;;;;;5065413;28;20045;-63
2023/07/08 11:07:13;;;;;;;15.07;5.05;;;;;;;;;;5059003;28;20160;-64
2023/07/08 11:09:58;;;;;;;8.38;4.95;;;;;;;;;;5053387;28;20099;-67
2023/07/08 11:12:28;;;;;;;9.23;4.88;;;;;;;;;;5056163;28;20486;-66
2023/07/08 11:14:59;;;;;;;9.27;5.18;;;;;;;;;;5052928;28;20403;-66
2023/07/08 11:17:38;;;;;;;9.73;5.10;;;;;;;;;;5067170;28;20056;-64
2023/07/08 11:20:15;;;;;;;10.73;5.22;;;;;;;;;;5073118;28;20135;-63
2023/07/08 11:22:46;;;;;;;11.43;4.70;;;;;;;;;;5067261;28;20055;-64
2023/07/08 11:25:18;;;;;;;11.45;4.95;;;;;;;;;;5062532;28;20445;-64
2023/07/08 11:27:47;;;;;;;23.65;5.80;;;;;;;;;;5047989;28;20110;-64
2023/07/08 11:30:16;;;;;;;7.50;4.85;;;;;;;;;;5068767;28;20577;-64
2023/07/08 11:32:46;;;;;;;7.65;5.55;;;;;;;;;;5066255;28;20497;-64
2023/07/08 11:35:19;;;;;;;12.80;5.28;;;;;;;;;;5066656;28;20053;-64
2023/07/08 11:37:47;;;;;;;8.70;5.53;;;;;;;;;;5066513;28;20107;-64
2023/07/08 11:40:21;;;;;;;10.82;5.60;;;;;;;;;;5067959;28;20080;-64
2023/07/08 11:42:53;;;;;;;11.57;5.40;;;;;;;;;;5064597;28;20136;-64
2023/07/08 11:45:26;;;;;;;11.20;6.22;;;;;;;;;;5069989;28;20100;-64
2023/07/08 11:47:54;;;;;;;9.73;5.13;;;;;;;;;;5065436;28;20072;-64
2023/07/08 11:50:31;;;;;;;13.55;6.10;;;;;;;;;;5070355;28;20073;-64
2023/07/08 11:53:00;;;;;;;7.65;5.30;;;;;;;;;;5064962;28;20584;-65
2023/07/08 11:55:35;;;;;;;9.70;5.80;;;;;;;;;;5072081;28;20056;-65
2023/07/08 11:58:02;;;;;;;7.88;5.10;;;;;;;;;;5064317;28;20171;-65
2023/07/08 12:00:34;;;;;;;8.73;5.47;;;;;;;;;;5067590;28;20060;-65
2023/07/08 12:03:17;;;;;;;10.90;5.30;;;;;;;;;;5057985;28;20096;-65
2023/07/08 12:05:46;;;;;;;12.65;6.20;;;;;;;;;;5059286;28;21382;-65
2023/07/08 12:08:15;;;;;;;7.00;5.10;;;;;;;;;;5069365;28;20053;-65
2023/07/08 12:10:47;;;;;;;8.23;5.72;;;;;;;;;;5069160;28;20048;-65
2023/07/08 12:13:17;;;;;;;7.57;5.55;;;;;;;;;;5063235;28;20106;-65
2023/07/08 12:15:44;;;;;;;10.50;5.55;;;;;;;;;;5068082;28;21101;-65
2023/07/08 12:18:22;;;;;;;10.30;5.68;;;;;;;;;;5068701;28;20924;-65
2023/07/08 12:20:54;;;;;;;9.88;5.80;;;;;;;;;;5068316;28;20057;-65
2023/07/08 12:23:23;;;;;;;7.03;4.95;;;;;;;;;;5061193;28;20490;-65
2023/07/08 12:25:51;;;;;;;10.57;5.32;;;;;;;;;;5066417;28;20070;-65
2023/07/08 12:28:18;;;;;;;11.13;5.13;;;;;;;;;;5066972;28;20041;-65
2023/07/08 12:30:46;;;;;;;9.68;5.78;;;;;;;;;;5068323;28;20137;-65
2023/07/08 12:33:27;;;;;;;7.90;5.60;;;;;;;;;;5066996;28;20052;-65
2023/07/08 12:35:54;;;;;;;10.55;5.70;;;;;;;;;;5064563;28;20057;-65
2023/07/08 12:38:28;;;;;;;12.05;5.30;;;;;;;;;;5067139;28;20045;-65
2023/07/08 12:40:57;;;;;;;8.80;5.57;;;;;;;;;;5063046;28;20053;-66
2023/07/08 12:43:24;;;;;;;8.73;5.20;;;;;;;;;;5064239;28;20691;-66
2023/07/08 12:45:53;;;;;;;8.63;5.63;;;;;;;;;;5066044;28;20057;-66
2023/07/08 12:48:20;;;;;;;9.20;5.22;;;;;;;;;;5067035;28;20529;-66
2023/07/08 12:50:49;;;;;;;9.27;5.80;;;;;;;;;;5067921;28;20490;-66
2023/07/08 12:53:17;;;;;;;8.10;5.38;;;;;;;;;;5067608;28;20106;-66
2023/07/08 12:55:45;;;;;;;10.05;5.75;;;;;;;;;;5066821;28;20059;-66
2023/07/08 12:58:23;;;;;;;10.75;5.47;;;;;;;;;;5058356;28;20087;-66
2023/07/08 13:00:50;;;;;;;7.22;5.20;;;;;;;;;;5051439;28;21300;-66
2023/07/08 13:03:19;;;;;;;8.65;5.40;;;;;;;;;;5055860;28;20041;-66
2023/07/08 13:05:46;;;;;;;9.60;6.18;;;;;;;;;;5067768;28;20490;-66
2023/07/08 13:08:15;;;;;;;11.75;5.90;;;;;;;;;;5067724;28;20048;-66
2023/07/08 13:10:42;;;;;;;8.85;5.03;;;;;;;;;;5052947;28;20053;-66
2023/07/08 13:13:14;;;;;;;7.60;5.25;;;;;;;;;;5067688;28;20056;-66
2023/07/08 13:15:42;;;;;;;11.23;5.95;;;;;;;;;;5062829;28;20091;-66
2023/07/08 13:18:19;;;;;;;10.50;5.60;;;;;;;;;;5068122;28;20119;-66
2023/07/08 13:20:49;;;;;;;10.55;5.43;;;;;;;;;;5065446;28;21184;-66
2023/07/08 13:23:16;;;;;;;9.63;5.57;;;;;;;;;;5038756;28;20053;-65
2023/07/08 13:25:43;;;;;;;13.43;5.68;;;;;;;;;;5061483;28;20126;-66
2023/07/08 13:28:20;;;;;;;8.75;5.55;;;;;;;;;;5065700;28;20060;-66
2023/07/08 13:30:52;;;;;;;8.85;5.00;;;;;;;;;;5064427;28;20478;-66
2023/07/08 13:33:19;;;;;;;10.45;5.65;;;;;;;;;;5068616;28;20959;-66
2023/07/08 13:35:47;;;;;;;10.52;5.40;;;;;;;;;;5072881;28;20053;-66
2023/07/08 13:38:21;;;;;;;11.68;5.60;;;;;;;;;;5065536;28;20052;-66
2023/07/08 13:40:50;;;;;;;8.65;5.68;;;;;;;;;;5063694;28;20049;-65
2023/07/08 13:43:23;;;;;;;7.55;5.35;;;;;;;;;;5063439;28;20053;-66
2023/07/08 13:45:50;;;;;;;10.48;5.18;;;;;;;;;;5060033;28;20056;-66
2023/07/08 13:48:29;;;;;;;9.27;5.45;;;;;;;;;;5070260;28;20053;-66
2023/07/08 13:51:04;;;;;;;8.48;5.40;;;;;;;;;;5071294;28;20056;-66
2023/07/08 13:53:43;;;;;;;8.10;5.32;;;;;;;;;;5070503;28;20065;-66
2023/07/08 13:56:19;;;;;;;8.85;5.45;;;;;;;;;;5051232;28;20059;-66
2023/07/08 13:58:48;;;;;;;9.77;5.43;;;;;;;;;;5054125;28;20192;-64
2023/07/08 14:01:24;;;;;;;8.15;4.97;;;;;;;;;;5056130;28;20170;-64
2023/07/08 14:03:53;;;;;;;7.85;4.95;;;;;;;;;;5056198;28;20049;-64
2023/07/08 14:06:22;;;;;;;11.18;5.22;;;;;;;;;;5055825;28;20885;-64
2023/07/08 14:08:49;;;;;;;9.20;5.32;;;;;;;;;;5071043;28;21992;-64
2023/07/08 14:11:16;;;;;;;7.03;5.20;;;;;;;;;;5066533;28;20044;-64
2023/07/08 14:13:44;;;;;;;10.52;5.10;;;;;;;;;;5067724;28;20513;-65
2023/07/08 14:16:29;;;;;;;9.25;5.30;;;;;;;;;;5065037;28;20153;-65
2023/07/08 14:18:57;;;;;;;8.38;4.97;;;;;;;;;;5069118;28;20140;-65
2023/07/08 14:21:24;;;;;;;12.35;5.15;;;;;;;;;;5062299;28;20492;-64
2023/07/08 14:23:52;;;;;;;10.15;4.95;;;;;;;;;;5070435;28;20045;-64
2023/07/08 14:26:19;;;;;;;10.25;5.43;;;;;;;;;;5067262;28;20654;-64
2023/07/08 14:28:46;;;;;;;7.35;4.85;;;;;;;;;;5069478;28;20072;-64
2023/07/08 14:31:15;;;;;;;14.40;5.30;;;;;;;;;;5064638;28;20065;-64
2023/07/08 14:33:43;;;;;;;13.95;5.10;;;;;;;;;;5063826;28;20053;-65
2023/07/08 14:36:10;;;;;;;7.85;5.20;;;;;;;;;;5065349;28;20808;-65
2023/07/08 14:38:38;;;;;;;10.60;5.25;;;;;;;;;;5061153;28;20896;-65
2023/07/08 14:41:05;;;;;;;16.13;6.03;;;;;;;;;;5069753;28;20072;-65
2023/07/08 14:43:33;;;;;;;11.38;5.00;;;;;;;;;;5072609;28;20107;-65
2023/07/08 14:46:03;;;;;;;10.23;5.47;;;;;;;;;;5073358;28;20132;-65
2023/07/08 14:48:32;;;;;;;8.02;5.00;;;;;;;;;;5072601;28;20055;-65
2023/07/08 14:50:59;;;;;;;10.05;5.10;;;;;;;;;;5065985;28;20053;-65
2023/07/08 14:53:27;;;;;;;8.95;5.13;;;;;;;;;;5053712;28;20426;-65
2023/07/08 14:55:56;;;;;;;9.45;5.68;;;;;;;;;;5064829;28;20099;-65